sensor_id;sensor_type;location;lat;lon;timestamp;pressure;altitude;pressure_sealevel;temperature;humidity
43147;BME280;28752;48.266;7.402;2023-08-07T00:02:00;99554.19;;;16.37;60.86
43147;BME280;28752;48.266;7.402;2023-08-07T00:04:25;99555.13;;;16.44;62.40
43147;BME280;28752;48.266;7.402;2023-08-07T00:06:50;99549.41;;;16.47;62.27
43147;BME280;28752;48.266;7.402;2023-08-07T00:09:16;99544.34;;;16.37;62.44
43147;BME280;28752;48.266;7.402;2023-08-07T00:11:41;99544.94;;;16.47;60.90
43147;BME280;28752;48.266;7.402;2023-08-07T00:14:06;99551.66;;;16.58;60.69
43147;BME280;28752;48.266;7.402;2023-08-07T00:16:32;99550.38;;;16.54;61.71
43147;BME280;28752;48.266;7.402;2023-08-07T00:18:57;99555.78;;;16.46;61.20
43147;BME280;28752;48.266;7.402;2023-08-07T00:21:23;99539.84;;;16.52;60.47
43147;BME280;28752;48.266;7.402;2023-08-07T00:23:48;99538.28;;;16.43;60.39
43147;BME280;28752;48.266;7.402;2023-08-07T00:26:15;99542.53;;;16.52;59.61
43147;BME280;28752;48.266;7.402;2023-08-07T00:28:40;99542.72;;;16.51;60.78
43147;BME280;28752;48.266;7.402;2023-08-07T00:31:05;99543.44;;;16.45;60.77
43147;BME280;28752;48.266;7.402;2023-08-07T00:33:31;99541.41;;;16.47;61.10
43147;BME280;28752;48.266;7.402;2023-08-07T00:35:56;99539.94;;;16.44;60.98
43147;BME280;28752;48.266;7.402;2023-08-07T00:38:21;99534.75;;;16.28;61.39
43147;BME280;28752;48.266;7.402;2023-08-07T00:40:47;99543.69;;;16.35;61.18
43147;BME280;28752;48.266;7.402;2023-08-07T00:43:12;99541.91;;;16.27;61.34
43147;BME280;28752;48.266;7.402;2023-08-07T00:45:42;99539.41;;;16.26;61.58
43147;BME280;28752;48.266;7.402;2023-08-07T00:48:08;99554.16;;;16.22;61.29
43147;BME280;28752;48.266;7.402;2023-08-07T00:50:33;99549.91;;;16.12;61.79
43147;BME280;28752;48.266;7.402;2023-08-07T00:52:59;99556.63;;;16.00;61.79
43147;BME280;28752;48.266;7.402;2023-08-07T00:55:25;99555.19;;;15.97;62.32
43147;BME280;28752;48.266;7.402;2023-08-07T00:57:51;99549.34;;;15.94;63.25
43147;BME280;28752;48.266;7.402;2023-08-07T01:00:17;99550.56;;;15.91;62.11
43147;BME280;28752;48.266;7.402;2023-08-07T01:02:42;99554.94;;;15.84;63.29
43147;BME280;28752;48.266;7.402;2023-08-07T01:05:08;99548.13;;;15.73;62.72
43147;BME280;28752;48.266;7.402;2023-08-07T01:07:33;99546.09;;;15.75;62.58
43147;BME280;28752;48.266;7.402;2023-08-07T01:09:59;99548.09;;;15.81;62.48
43147;BME280;28752;48.266;7.402;2023-08-07T01:12:36;99556.66;;;15.69;62.70
43147;BME280;28752;48.266;7.402;2023-08-07T01:15:12;99550.97;;;15.72;62.27
43147;BME280;28752;48.266;7.402;2023-08-07T01:17:41;99555.75;;;15.85;62.04
43147;BME280;28752;48.266;7.402;2023-08-07T01:20:08;99553.63;;;15.80;62.42
43147;BME280;28752;48.266;7.402;2023-08-07T01:22:33;99552.72;;;15.88;62.16
43147;BME280;28752;48.266;7.402;2023-08-07T01:24:59;99557.31;;;16.02;61.87
43147;BME280;28752;48.266;7.402;2023-08-07T01:27:35;99554.75;;;15.86;62.24
43147;BME280;28752;48.266;7.402;2023-08-07T01:30:29;99553.44;;;15.50;63.53
43147;BME280;28752;48.266;7.402;2023-08-07T01:35:33;99553.28;;;15.43;64.33
43147;BME280;28752;48.266;7.402;2023-08-07T01:38:00;99565.13;;;15.41;65.05
43147;BME280;28752;48.266;7.402;2023-08-07T01:40:27;99560.28;;;15.44;64.39
43147;BME280;28752;48.266;7.402;2023-08-07T01:42:53;99556.41;;;15.47;64.01
43147;BME280;28752;48.266;7.402;2023-08-07T01:45:26;99562.13;;;15.44;63.39
43147;BME280;28752;48.266;7.402;2023-08-07T01:47:52;99560.25;;;15.53;64.13
43147;BME280;28752;48.266;7.402;2023-08-07T01:50:22;99565.56;;;15.61;64.21
43147;BME280;28752;48.266;7.402;2023-08-07T01:52:47;99571.53;;;15.63;64.38
43147;BME280;28752;48.266;7.402;2023-08-07T01:55:14;99569.88;;;15.62;64.06
43147;BME280;28752;48.266;7.402;2023-08-07T01:57:39;99572.88;;;15.59;63.69
43147;BME280;28752;48.266;7.402;2023-08-07T02:00:05;99568.22;;;15.61;65.06
43147;BME280;28752;48.266;7.402;2023-08-07T02:02:31;99559.94;;;15.48;65.15
43147;BME280;28752;48.266;7.402;2023-08-07T02:04:56;99577.41;;;15.58;64.87
43147;BME280;28752;48.266;7.402;2023-08-07T02:07:22;99580.88;;;15.59;65.78
43147;BME280;28752;48.266;7.402;2023-08-07T02:09:47;99587.44;;;15.48;66.33
43147;BME280;28752;48.266;7.402;2023-08-07T02:12:12;99574.09;;;15.56;65.16
43147;BME280;28752;48.266;7.402;2023-08-07T02:14:38;99582.38;;;15.61;64.58
43147;BME280;28752;48.266;7.402;2023-08-07T02:17:03;99574.69;;;15.67;64.03
43147;BME280;28752;48.266;7.402;2023-08-07T02:19:29;99579.66;;;15.70;63.51
43147;BME280;28752;48.266;7.402;2023-08-07T02:21:54;99579.13;;;15.83;63.30
43147;BME280;28752;48.266;7.402;2023-08-07T02:24:19;99577.28;;;15.83;63.65
43147;BME280;28752;48.266;7.402;2023-08-07T02:26:45;99579.59;;;15.86;64.28
43147;BME280;28752;48.266;7.402;2023-08-07T02:29:10;99581.56;;;15.92;64.88
43147;BME280;28752;48.266;7.402;2023-08-07T02:31:36;99578.06;;;15.92;64.80
43147;BME280;28752;48.266;7.402;2023-08-07T02:34:01;99572.63;;;15.85;64.60
43147;BME280;28752;48.266;7.402;2023-08-07T02:36:26;99578.06;;;15.92;64.52
43147;BME280;28752;48.266;7.402;2023-08-07T02:38:52;99570.59;;;15.87;64.13
43147;BME280;28752;48.266;7.402;2023-08-07T02:41:17;99577.47;;;15.81;64.10
43147;BME280;28752;48.266;7.402;2023-08-07T02:43:42;99571.13;;;15.83;65.15
43147;BME280;28752;48.266;7.402;2023-08-07T02:46:08;99579.75;;;15.93;64.77
43147;BME280;28752;48.266;7.402;2023-08-07T02:48:33;99574.81;;;16.05;64.90
43147;BME280;28752;48.266;7.402;2023-08-07T02:50:59;99584.47;;;16.06;64.26
43147;BME280;28752;48.266;7.402;2023-08-07T02:53:24;99577.59;;;16.11;65.40
43147;BME280;28752;48.266;7.402;2023-08-07T02:55:49;99583.41;;;15.92;65.90
43147;BME280;28752;48.266;7.402;2023-08-07T02:58:15;99578.13;;;15.84;66.19
43147;BME280;28752;48.266;7.402;2023-08-07T03:00:40;99563.13;;;15.83;66.02
43147;BME280;28752;48.266;7.402;2023-08-07T03:03:05;99568.91;;;15.86;66.41
43147;BME280;28752;48.266;7.402;2023-08-07T03:05:31;99568.75;;;15.88;66.40
43147;BME280;28752;48.266;7.402;2023-08-07T03:07:56;99566.44;;;15.85;66.42
43147;BME280;28752;48.266;7.402;2023-08-07T03:10:21;99568.28;;;15.84;66.72
43147;BME280;28752;48.266;7.402;2023-08-07T03:12:47;99565.06;;;15.89;65.06
43147;BME280;28752;48.266;7.402;2023-08-07T03:15:12;99566.84;;;15.96;64.68
43147;BME280;28752;48.266;7.402;2023-08-07T03:17:37;99572.66;;;16.00;64.85
43147;BME280;28752;48.266;7.402;2023-08-07T03:20:03;99550.72;;;15.90;65.67
43147;BME280;28752;48.266;7.402;2023-08-07T03:22:29;99565.97;;;16.04;65.63
43147;BME280;28752;48.266;7.402;2023-08-07T03:24:54;99560.88;;;15.94;65.37
43147;BME280;28752;48.266;7.402;2023-08-07T03:27:20;99571.31;;;16.04;65.55
43147;BME280;28752;48.266;7.402;2023-08-07T03:29:46;99560.97;;;16.01;66.01
43147;BME280;28752;48.266;7.402;2023-08-07T03:32:11;99565.31;;;16.02;65.95
43147;BME280;28752;48.266;7.402;2023-08-07T03:34:36;99561.44;;;16.05;65.30
43147;BME280;28752;48.266;7.402;2023-08-07T03:37:02;99564.59;;;16.08;65.34
43147;BME280;28752;48.266;7.402;2023-08-07T03:39:27;99561.59;;;16.11;65.71
43147;BME280;28752;48.266;7.402;2023-08-07T03:41:53;99565.22;;;16.19;65.30
43147;BME280;28752;48.266;7.402;2023-08-07T03:44:18;99558.66;;;16.21;65.25
43147;BME280;28752;48.266;7.402;2023-08-07T03:46:43;99556.34;;;16.18;65.32
43147;BME280;28752;48.266;7.402;2023-08-07T03:49:09;99560.03;;;16.17;65.74
43147;BME280;28752;48.266;7.402;2023-08-07T03:51:34;99555.75;;;16.08;65.22
43147;BME280;28752;48.266;7.402;2023-08-07T03:53:59;99549.84;;;15.97;63.40
43147;BME280;28752;48.266;7.402;2023-08-07T03:56:25;99551.91;;;16.10;63.72
43147;BME280;28752;48.266;7.402;2023-08-07T03:58:50;99562.72;;;16.17;63.40
43147;BME280;28752;48.266;7.402;2023-08-07T04:01:16;99565.22;;;16.19;64.13
43147;BME280;28752;48.266;7.402;2023-08-07T04:03:41;99569.53;;;16.20;64.12
43147;BME280;28752;48.266;7.402;2023-08-07T04:06:07;99572.88;;;16.22;64.74
43147;BME280;28752;48.266;7.402;2023-08-07T04:08:33;99573.03;;;16.20;63.76
43147;BME280;28752;48.266;7.402;2023-08-07T04:11:02;99579.44;;;16.11;63.62
43147;BME280;28752;48.266;7.402;2023-08-07T04:13:28;99572.88;;;16.22;63.27
43147;BME280;28752;48.266;7.402;2023-08-07T04:15:53;99565.84;;;16.21;63.03
43147;BME280;28752;48.266;7.402;2023-08-07T04:18:19;99566.22;;;16.17;63.34
43147;BME280;28752;48.266;7.402;2023-08-07T04:20:54;99563.00;;;16.22;63.50
43147;BME280;28752;48.266;7.402;2023-08-07T04:23:19;99577.72;;;16.18;63.90
43147;BME280;28752;48.266;7.402;2023-08-07T04:25:46;99574.41;;;16.16;63.84
43147;BME280;28752;48.266;7.402;2023-08-07T04:28:12;99574.16;;;16.03;63.27
43147;BME280;28752;48.266;7.402;2023-08-07T04:30:37;99572.38;;;15.95;63.67
43147;BME280;28752;48.266;7.402;2023-08-07T04:33:02;99569.06;;;15.93;63.53
43147;BME280;28752;48.266;7.402;2023-08-07T04:35:28;99580.31;;;16.03;64.25
43147;BME280;28752;48.266;7.402;2023-08-07T04:37:53;99574.50;;;15.99;64.47
43147;BME280;28752;48.266;7.402;2023-08-07T04:40:19;99576.75;;;15.88;63.55
43147;BME280;28752;48.266;7.402;2023-08-07T04:42:44;99586.78;;;15.86;64.96
43147;BME280;28752;48.266;7.402;2023-08-07T04:45:09;99582.94;;;15.88;65.07
43147;BME280;28752;48.266;7.402;2023-08-07T04:47:35;99593.66;;;15.80;65.52
43147;BME280;28752;48.266;7.402;2023-08-07T04:50:01;99597.81;;;15.83;65.93
43147;BME280;28752;48.266;7.402;2023-08-07T04:52:26;99603.28;;;15.89;65.98
43147;BME280;28752;48.266;7.402;2023-08-07T04:54:51;99594.91;;;15.92;65.93
43147;BME280;28752;48.266;7.402;2023-08-07T04:57:17;99591.78;;;15.89;66.09
43147;BME280;28752;48.266;7.402;2023-08-07T04:59:42;99596.69;;;16.00;66.56
43147;BME280;28752;48.266;7.402;2023-08-07T05:02:07;99589.88;;;16.21;65.24
43147;BME280;28752;48.266;7.402;2023-08-07T05:04:33;99595.06;;;16.22;64.63
43147;BME280;28752;48.266;7.402;2023-08-07T05:06:58;99600.88;;;16.03;65.63
43147;BME280;28752;48.266;7.402;2023-08-07T05:09:23;99605.41;;;15.94;65.57
43147;BME280;28752;48.266;7.402;2023-08-07T05:11:48;99607.34;;;16.08;65.56
43147;BME280;28752;48.266;7.402;2023-08-07T05:14:14;99603.25;;;16.21;64.71
43147;BME280;28752;48.266;7.402;2023-08-07T05:16:39;99618.44;;;16.43;65.20
43147;BME280;28752;48.266;7.402;2023-08-07T05:19:04;99608.03;;;16.48;65.21
43147;BME280;28752;48.266;7.402;2023-08-07T05:21:30;99615.69;;;16.51;63.93
43147;BME280;28752;48.266;7.402;2023-08-07T05:23:55;99611.97;;;16.76;63.52
43147;BME280;28752;48.266;7.402;2023-08-07T05:26:21;99609.38;;;16.67;63.54
43147;BME280;28752;48.266;7.402;2023-08-07T05:28:46;99604.75;;;16.61;63.26
43147;BME280;28752;48.266;7.402;2023-08-07T05:31:12;99615.22;;;16.48;62.91
43147;BME280;28752;48.266;7.402;2023-08-07T05:33:37;99608.63;;;16.59;63.59
43147;BME280;28752;48.266;7.402;2023-08-07T05:36:03;99614.81;;;16.74;64.41
43147;BME280;28752;48.266;7.402;2023-08-07T05:38:30;99619.25;;;16.82;64.79
43147;BME280;28752;48.266;7.402;2023-08-07T05:40:55;99629.50;;;16.78;64.67
43147;BME280;28752;48.266;7.402;2023-08-07T05:43:21;99617.75;;;16.87;64.62
43147;BME280;28752;48.266;7.402;2023-08-07T05:45:46;99618.31;;;16.98;63.91
43147;BME280;28752;48.266;7.402;2023-08-07T05:48:11;99615.94;;;17.18;63.96
43147;BME280;28752;48.266;7.402;2023-08-07T05:50:37;99618.88;;;17.23;63.86
43147;BME280;28752;48.266;7.402;2023-08-07T05:53:02;99621.53;;;17.23;63.52
43147;BME280;28752;48.266;7.402;2023-08-07T05:55:28;99630.06;;;17.27;63.24
43147;BME280;28752;48.266;7.402;2023-08-07T05:57:53;99631.13;;;17.32;63.02
43147;BME280;28752;48.266;7.402;2023-08-07T06:00:18;99634.28;;;17.36;62.30
43147;BME280;28752;48.266;7.402;2023-08-07T06:02:45;99635.59;;;17.40;63.22
43147;BME280;28752;48.266;7.402;2023-08-07T06:05:10;99636.78;;;17.37;61.79
43147;BME280;28752;48.266;7.402;2023-08-07T06:07:38;99633.19;;;17.30;62.03
43147;BME280;28752;48.266;7.402;2023-08-07T06:10:04;99638.16;;;17.48;61.91
43147;BME280;28752;48.266;7.402;2023-08-07T06:12:29;99637.84;;;17.73;60.62
43147;BME280;28752;48.266;7.402;2023-08-07T06:14:54;99637.44;;;18.06;60.36
43147;BME280;28752;48.266;7.402;2023-08-07T06:17:20;99641.91;;;18.20;59.09
43147;BME280;28752;48.266;7.402;2023-08-07T06:19:45;99647.78;;;18.09;59.11
43147;BME280;28752;48.266;7.402;2023-08-07T06:22:10;99656.75;;;18.01;59.21
43147;BME280;28752;48.266;7.402;2023-08-07T06:24:36;99648.09;;;17.99;59.35
43147;BME280;28752;48.266;7.402;2023-08-07T06:27:02;99654.81;;;18.32;59.20
43147;BME280;28752;48.266;7.402;2023-08-07T06:29:27;99657.06;;;18.50;58.74
43147;BME280;28752;48.266;7.402;2023-08-07T06:31:53;99667.00;;;18.56;57.83
43147;BME280;28752;48.266;7.402;2023-08-07T06:34:18;99660.94;;;18.47;58.54
43147;BME280;28752;48.266;7.402;2023-08-07T06:36:43;99670.44;;;18.71;57.97
43147;BME280;28752;48.266;7.402;2023-08-07T06:39:09;99670.66;;;19.55;56.99
43147;BME280;28752;48.266;7.402;2023-08-07T06:41:35;99673.53;;;19.88;54.69
43147;BME280;28752;48.266;7.402;2023-08-07T06:44:01;99661.75;;;19.96;54.16
43147;BME280;28752;48.266;7.402;2023-08-07T06:46:26;99669.03;;;20.09;53.53
43147;BME280;28752;48.266;7.402;2023-08-07T06:48:53;99661.47;;;21.39;50.88
43147;BME280;28752;48.266;7.402;2023-08-07T06:51:18;99675.47;;;21.68;50.93
43147;BME280;28752;48.266;7.402;2023-08-07T06:53:43;99674.53;;;22.01;50.04
43147;BME280;28752;48.266;7.402;2023-08-07T06:56:09;99669.63;;;22.62;47.80
43147;BME280;28752;48.266;7.402;2023-08-07T06:58:34;99667.25;;;22.72;47.64
43147;BME280;28752;48.266;7.402;2023-08-07T07:00:59;99674.94;;;24.00;46.04
43147;BME280;28752;48.266;7.402;2023-08-07T07:03:25;99671.03;;;26.44;41.30
43147;BME280;28752;48.266;7.402;2023-08-07T07:05:50;99674.31;;;27.48;39.05
43147;BME280;28752;48.266;7.402;2023-08-07T07:08:16;99675.44;;;26.16;39.72
43147;BME280;28752;48.266;7.402;2023-08-07T07:10:41;99671.91;;;25.63;41.59
43147;BME280;28752;48.266;7.402;2023-08-07T07:13:06;99677.69;;;26.08;39.72
43147;BME280;28752;48.266;7.402;2023-08-07T07:15:34;99677.50;;;25.85;40.68
43147;BME280;28752;48.266;7.402;2023-08-07T07:18:00;99686.44;;;27.40;37.99
43147;BME280;28752;48.266;7.402;2023-08-07T07:20:25;99693.66;;;28.18;35.74
43147;BME280;28752;48.266;7.402;2023-08-07T07:22:51;99696.22;;;28.03;36.65
43147;BME280;28752;48.266;7.402;2023-08-07T07:25:17;99687.22;;;28.51;36.43
43147;BME280;28752;48.266;7.402;2023-08-07T07:27:42;99713.91;;;27.83;36.88
43147;BME280;28752;48.266;7.402;2023-08-07T07:30:08;99711.25;;;27.10;37.80
43147;BME280;28752;48.266;7.402;2023-08-07T07:32:33;99707.44;;;25.91;37.76
43147;BME280;28752;48.266;7.402;2023-08-07T07:34:58;99708.47;;;25.49;39.60
43147;BME280;28752;48.266;7.402;2023-08-07T07:37:24;99714.09;;;25.83;40.67
43147;BME280;28752;48.266;7.402;2023-08-07T07:39:49;99706.06;;;27.42;37.79
43147;BME280;28752;48.266;7.402;2023-08-07T07:42:14;99710.50;;;29.34;35.36
43147;BME280;28752;48.266;7.402;2023-08-07T07:44:40;99716.97;;;28.58;36.20
43147;BME280;28752;48.266;7.402;2023-08-07T07:47:06;99703.97;;;29.35;33.55
43147;BME280;28752;48.266;7.402;2023-08-07T07:49:32;99710.94;;;29.64;33.75
43147;BME280;28752;48.266;7.402;2023-08-07T07:51:58;99712.50;;;29.12;34.33
43147;BME280;28752;48.266;7.402;2023-08-07T07:54:23;99718.00;;;27.41;35.41
43147;BME280;28752;48.266;7.402;2023-08-07T07:56:48;99704.16;;;26.75;38.91
43147;BME280;28752;48.266;7.402;2023-08-07T07:59:14;99709.06;;;26.15;39.05
43147;BME280;28752;48.266;7.402;2023-08-07T08:01:40;99715.81;;;26.58;38.27
43147;BME280;28752;48.266;7.402;2023-08-07T08:04:05;99705.84;;;26.18;37.55
43147;BME280;28752;48.266;7.402;2023-08-07T08:06:30;99713.75;;;25.20;39.40
43147;BME280;28752;48.266;7.402;2023-08-07T08:08:56;99713.63;;;25.27;38.53
43147;BME280;28752;48.266;7.402;2023-08-07T08:11:21;99708.75;;;25.88;37.85
43147;BME280;28752;48.266;7.402;2023-08-07T08:13:47;99714.28;;;26.34;38.29
43147;BME280;28752;48.266;7.402;2023-08-07T08:16:12;99724.19;;;26.57;37.67
43147;BME280;28752;48.266;7.402;2023-08-07T08:18:37;99718.78;;;24.81;36.74
43147;BME280;28752;48.266;7.402;2023-08-07T08:21:03;99721.34;;;25.30;38.26
43147;BME280;28752;48.266;7.402;2023-08-07T08:23:28;99725.66;;;25.54;39.31
43147;BME280;28752;48.266;7.402;2023-08-07T08:25:53;99732.19;;;25.42;38.73
43147;BME280;28752;48.266;7.402;2023-08-07T08:28:19;99730.00;;;24.05;37.23
43147;BME280;28752;48.266;7.402;2023-08-07T08:30:44;99729.81;;;23.63;39.46
43147;BME280;28752;48.266;7.402;2023-08-07T08:33:10;99732.28;;;23.46;40.11
43147;BME280;28752;48.266;7.402;2023-08-07T08:35:38;99729.72;;;23.33;38.61
43147;BME280;28752;48.266;7.402;2023-08-07T08:38:03;99731.19;;;24.09;39.31
43147;BME280;28752;48.266;7.402;2023-08-07T08:40:30;99724.50;;;23.56;39.58
43147;BME280;28752;48.266;7.402;2023-08-07T08:42:55;99725.75;;;23.35;38.03
43147;BME280;28752;48.266;7.402;2023-08-07T08:45:25;99724.66;;;22.86;40.03
43147;BME280;28752;48.266;7.402;2023-08-07T08:47:51;99724.09;;;23.09;39.67
43147;BME280;28752;48.266;7.402;2023-08-07T08:50:17;99733.13;;;23.21;39.67
43147;BME280;28752;48.266;7.402;2023-08-07T08:52:43;99737.25;;;23.68;38.94
43147;BME280;28752;48.266;7.402;2023-08-07T08:55:11;99736.06;;;24.19;38.88
43147;BME280;28752;48.266;7.402;2023-08-07T08:57:37;99741.44;;;23.45;38.62
43147;BME280;28752;48.266;7.402;2023-08-07T09:00:08;99733.13;;;22.96;39.44
43147;BME280;28752;48.266;7.402;2023-08-07T09:02:53;99735.06;;;23.14;39.48
43147;BME280;28752;48.266;7.402;2023-08-07T09:05:20;99733.72;;;22.66;39.98
43147;BME280;28752;48.266;7.402;2023-08-07T09:07:47;99738.34;;;22.59;39.13
43147;BME280;28752;48.266;7.402;2023-08-07T09:10:14;99728.91;;;22.43;39.85
43147;BME280;28752;48.266;7.402;2023-08-07T09:12:40;99727.16;;;22.87;40.55
43147;BME280;28752;48.266;7.402;2023-08-07T09:15:06;99740.41;;;23.83;40.18
43147;BME280;28752;48.266;7.402;2023-08-07T09:17:38;99733.19;;;24.33;40.39
43147;BME280;28752;48.266;7.402;2023-08-07T09:20:05;99734.38;;;23.44;36.85
43147;BME280;28752;48.266;7.402;2023-08-07T09:22:31;99724.25;;;24.62;38.51
43147;BME280;28752;48.266;7.402;2023-08-07T09:24:57;99727.94;;;24.19;37.18
43147;BME280;28752;48.266;7.402;2023-08-07T09:27:25;99739.81;;;24.18;36.88
43147;BME280;28752;48.266;7.402;2023-08-07T09:29:50;99722.38;;;24.44;36.24
43147;BME280;28752;48.266;7.402;2023-08-07T09:32:17;99718.78;;;25.05;36.84
43147;BME280;28752;48.266;7.402;2023-08-07T09:34:44;99733.50;;;24.97;37.90
43147;BME280;28752;48.266;7.402;2023-08-07T09:37:09;99733.19;;;24.14;36.92
43147;BME280;28752;48.266;7.402;2023-08-07T09:39:36;99744.53;;;24.23;38.68
43147;BME280;28752;48.266;7.402;2023-08-07T09:42:03;99742.75;;;24.17;37.88
43147;BME280;28752;48.266;7.402;2023-08-07T09:44:35;99751.09;;;24.15;39.13
43147;BME280;28752;48.266;7.402;2023-08-07T09:47:11;99742.41;;;24.74;39.96
43147;BME280;28752;48.266;7.402;2023-08-07T09:49:37;99736.47;;;24.95;37.08
43147;BME280;28752;48.266;7.402;2023-08-07T09:52:05;99724.34;;;25.22;38.03
43147;BME280;28752;48.266;7.402;2023-08-07T09:54:32;99750.94;;;25.96;36.26
43147;BME280;28752;48.266;7.402;2023-08-07T09:56:58;99749.22;;;26.30;34.52
43147;BME280;28752;48.266;7.402;2023-08-07T09:59:23;99745.94;;;25.40;35.94
43147;BME280;28752;48.266;7.402;2023-08-07T10:01:49;99747.81;;;25.51;34.52
43147;BME280;28752;48.266;7.402;2023-08-07T10:04:15;99735.88;;;25.17;34.98
43147;BME280;28752;48.266;7.402;2023-08-07T10:06:43;99751.72;;;24.78;36.25
43147;BME280;28752;48.266;7.402;2023-08-07T10:09:08;99741.53;;;24.31;37.57
43147;BME280;28752;48.266;7.402;2023-08-07T10:11:34;99758.81;;;24.30;38.52
43147;BME280;28752;48.266;7.402;2023-08-07T10:14:00;99756.97;;;24.61;39.24
43147;BME280;28752;48.266;7.402;2023-08-07T10:16:26;99765.94;;;24.73;38.44
43147;BME280;28752;48.266;7.402;2023-08-07T10:18:53;99763.81;;;25.06;38.63
43147;BME280;28752;48.266;7.402;2023-08-07T10:21:19;99756.22;;;24.84;38.89
43147;BME280;28752;48.266;7.402;2023-08-07T10:23:46;99764.88;;;25.16;38.67
43147;BME280;28752;48.266;7.402;2023-08-07T10:26:13;99762.41;;;25.15;38.52
43147;BME280;28752;48.266;7.402;2023-08-07T10:28:40;99763.75;;;25.36;38.31
43147;BME280;28752;48.266;7.402;2023-08-07T10:31:06;99757.22;;;25.13;35.74
43147;BME280;28752;48.266;7.402;2023-08-07T10:33:32;99761.47;;;24.00;37.30
43147;BME280;28752;48.266;7.402;2023-08-07T10:35:58;99761.13;;;24.75;37.27
43147;BME280;28752;48.266;7.402;2023-08-07T10:38:28;99759.25;;;24.76;37.86
43147;BME280;28752;48.266;7.402;2023-08-07T10:43:29;99753.97;;;24.93;39.21
43147;BME280;28752;48.266;7.402;2023-08-07T10:46:05;99763.16;;;24.80;38.15
43147;BME280;28752;48.266;7.402;2023-08-07T10:48:38;99753.91;;;23.90;37.58
43147;BME280;28752;48.266;7.402;2023-08-07T10:51:03;99755.47;;;24.16;39.30
43147;BME280;28752;48.266;7.402;2023-08-07T10:53:34;99754.59;;;24.16;39.83
43147;BME280;28752;48.266;7.402;2023-08-07T10:56:04;99765.22;;;23.99;40.57
43147;BME280;28752;48.266;7.402;2023-08-07T10:58:33;99762.50;;;23.36;39.83
43147;BME280;28752;48.266;7.402;2023-08-07T11:02:01;99760.59;;;23.81;40.58
43147;BME280;28752;48.266;7.402;2023-08-07T11:04:12;99758.34;;;23.77;40.97
43147;BME280;28752;48.266;7.402;2023-08-07T11:06:40;99757.16;;;23.73;40.70
43147;BME280;28752;48.266;7.402;2023-08-07T11:09:06;99760.94;;;24.09;41.88
43147;BME280;28752;48.266;7.402;2023-08-07T11:11:42;99758.09;;;24.04;41.74
43147;BME280;28752;48.266;7.402;2023-08-07T11:14:13;99749.88;;;24.29;39.99
43147;BME280;28752;48.266;7.402;2023-08-07T11:16:38;99754.84;;;24.14;41.93
43147;BME280;28752;48.266;7.402;2023-08-07T11:19:05;99753.66;;;24.10;39.90
43147;BME280;28752;48.266;7.402;2023-08-07T11:21:33;99745.38;;;24.23;38.47
43147;BME280;28752;48.266;7.402;2023-08-07T11:23:59;99745.66;;;24.64;40.10
43147;BME280;28752;48.266;7.402;2023-08-07T11:26:24;99735.94;;;24.75;37.78
43147;BME280;28752;48.266;7.402;2023-08-07T11:28:51;99733.16;;;25.05;39.93
43147;BME280;28752;48.266;7.402;2023-08-07T11:31:18;99732.09;;;24.82;37.68
43147;BME280;28752;48.266;7.402;2023-08-07T11:33:43;99722.59;;;25.27;39.56
43147;BME280;28752;48.266;7.402;2023-08-07T11:36:13;99736.13;;;25.63;38.69
43147;BME280;28752;48.266;7.402;2023-08-07T11:38:41;99726.84;;;25.59;38.65
43147;BME280;28752;48.266;7.402;2023-08-07T11:41:13;99736.75;;;25.53;38.90
43147;BME280;28752;48.266;7.402;2023-08-07T11:43:40;99736.81;;;25.94;39.24
43147;BME280;28752;48.266;7.402;2023-08-07T11:46:15;99748.25;;;26.08;38.75
43147;BME280;28752;48.266;7.402;2023-08-07T11:48:41;99743.16;;;25.99;37.25
43147;BME280;28752;48.266;7.402;2023-08-07T11:51:07;99722.16;;;25.54;37.49
43147;BME280;28752;48.266;7.402;2023-08-07T11:53:37;99725.81;;;25.48;38.32
43147;BME280;28752;48.266;7.402;2023-08-07T11:56:10;99733.56;;;25.44;36.87
43147;BME280;28752;48.266;7.402;2023-08-07T11:58:43;99714.81;;;25.19;37.60
43147;BME280;28752;48.266;7.402;2023-08-07T12:01:13;99715.75;;;25.13;38.70
43147;BME280;28752;48.266;7.402;2023-08-07T12:03:42;99719.31;;;25.49;39.61
43147;BME280;28752;48.266;7.402;2023-08-07T12:06:09;99725.31;;;25.51;38.75
43147;BME280;28752;48.266;7.402;2023-08-07T12:08:38;99718.06;;;24.97;38.31
43147;BME280;28752;48.266;7.402;2023-08-07T12:11:08;99717.44;;;24.60;39.39
43147;BME280;28752;48.266;7.402;2023-08-07T12:13:37;99735.16;;;24.25;40.09
43147;BME280;28752;48.266;7.402;2023-08-07T12:16:03;99745.13;;;24.43;39.22
43147;BME280;28752;48.266;7.402;2023-08-07T12:18:30;99733.59;;;24.78;40.36
43147;BME280;28752;48.266;7.402;2023-08-07T12:21:00;99723.16;;;25.06;40.08
43147;BME280;28752;48.266;7.402;2023-08-07T12:23:26;99727.44;;;25.25;38.94
43147;BME280;28752;48.266;7.402;2023-08-07T12:25:52;99726.66;;;24.94;37.50
43147;BME280;28752;48.266;7.402;2023-08-07T12:28:17;99719.84;;;25.04;39.61
43147;BME280;28752;48.266;7.402;2023-08-07T12:30:45;99711.97;;;24.90;36.45
43147;BME280;28752;48.266;7.402;2023-08-07T12:33:11;99711.84;;;24.97;38.96
43147;BME280;28752;48.266;7.402;2023-08-07T12:35:36;99719.00;;;24.91;38.57
43147;BME280;28752;48.266;7.402;2023-08-07T12:38:02;99742.63;;;24.60;37.40
43147;BME280;28752;48.266;7.402;2023-08-07T12:40:29;99745.94;;;24.44;38.57
43147;BME280;28752;48.266;7.402;2023-08-07T12:42:55;99751.28;;;24.32;38.38
43147;BME280;28752;48.266;7.402;2023-08-07T12:45:21;99755.72;;;23.96;38.27
43147;BME280;28752;48.266;7.402;2023-08-07T12:47:46;99744.63;;;24.16;38.15
43147;BME280;28752;48.266;7.402;2023-08-07T12:50:11;99736.75;;;24.15;38.24
43147;BME280;28752;48.266;7.402;2023-08-07T12:52:37;99728.72;;;24.38;38.95
43147;BME280;28752;48.266;7.402;2023-08-07T12:55:02;99716.91;;;24.51;37.72
43147;BME280;28752;48.266;7.402;2023-08-07T12:57:29;99726.84;;;24.08;38.95
43147;BME280;28752;48.266;7.402;2023-08-07T12:59:54;99727.72;;;24.21;40.26
43147;BME280;28752;48.266;7.402;2023-08-07T13:02:19;99720.13;;;24.11;40.74